Time;durP1;ratioP1;P1;durP2;ratioP2;P2;SDS_P1;SDS_P2;PMS_P1;PMS_P2;Temp;Humidity;BMP_temperature;BMP_pressure;BME280_temperature;BME280_humidity;BME280_pressure;Samples;Min_cycle;Max_cycle;Signal;HPM_P1;HPM_P2
2023/09/11 00:02:12;;;;;;;7.57;4.70;;;26.10;99.90;;;;;;5035133;28;20045;-55
2023/09/11 00:04:37;;;;;;;8.93;5.15;;;26.00;99.90;;;;;;5038983;28;20037;-55
2023/09/11 00:07:03;;;;;;;9.88;5.07;;;26.00;99.90;;;;;;5052280;28;20498;-56
2023/09/11 00:09:29;;;;;;;9.00;5.45;;;26.00;99.90;;;;;;5033060;28;20061;-55
2023/09/11 00:11:55;;;;;;;11.43;5.75;;;26.00;99.90;;;;;;5034370;28;20100;-54
2023/09/11 00:14:21;;;;;;;8.20;4.63;;;25.90;99.90;;;;;;5044717;28;20066;-55
2023/09/11 00:16:46;;;;;;;11.48;5.93;;;25.90;99.90;;;;;;5050493;28;20064;-56
2023/09/11 00:19:12;;;;;;;7.95;5.35;;;25.80;99.90;;;;;;5030969;28;20382;-55
2023/09/11 00:21:38;;;;;;;11.52;5.15;;;25.80;99.90;;;;;;5032494;28;20021;-55
2023/09/11 00:24:04;;;;;;;7.63;5.22;;;25.80;99.90;;;;;;5038219;28;20199;-56
2023/09/11 00:26:30;;;;;;;8.30;4.95;;;25.80;99.90;;;;;;5038606;28;20029;-56
2023/09/11 00:28:56;;;;;;;9.10;4.60;;;25.80;99.90;;;;;;5033683;28;20104;-56
2023/09/11 00:31:22;;;;;;;7.00;5.35;;;25.80;99.90;;;;;;5031697;28;20125;-56
2023/09/11 00:33:48;;;;;;;10.68;4.93;;;25.80;99.90;;;;;;5039091;28;20021;-56
2023/09/11 00:36:14;;;;;;;10.20;5.18;;;25.80;99.90;;;;;;5034192;28;20021;-56
2023/09/11 00:38:40;;;;;;;9.05;4.95;;;25.70;99.90;;;;;;5031839;28;20486;-56
2023/09/11 00:41:05;;;;;;;6.78;4.90;;;25.70;99.90;;;;;;5032459;28;20056;-57
2023/09/11 00:43:31;;;;;;;9.30;4.68;;;25.70;99.90;;;;;;5029966;28;20045;-56
2023/09/11 00:45:57;;;;;;;7.38;5.30;;;25.70;99.90;;;;;;5031162;28;20057;-55
2023/09/11 00:48:24;;;;;;;7.60;4.93;;;25.70;99.90;;;;;;5034183;28;20030;-56
2023/09/11 00:50:51;;;;;;;10.27;5.72;;;25.70;99.90;;;;;;5033512;28;20486;-56
2023/09/11 00:53:18;;;;;;;11.50;4.32;;;25.70;99.90;;;;;;5032063;28;20577;-56
2023/09/11 00:55:45;;;;;;;12.05;4.68;;;25.70;99.90;;;;;;5015621;28;20470;-57
2023/09/11 00:58:12;;;;;;;8.98;5.10;;;25.70;99.90;;;;;;5013955;28;20033;-56
2023/09/11 01:00:38;;;;;;;5.22;4.40;;;25.60;99.90;;;;;;5018142;28;20053;-56
2023/09/11 01:03:05;;;;;;;7.43;4.53;;;25.60;99.90;;;;;;5024669;28;20046;-56
2023/09/11 01:05:31;;;;;;;6.93;5.28;;;25.70;99.90;;;;;;5024815;28;20028;-56
2023/09/11 01:07:57;;;;;;;6.85;5.10;;;25.70;99.90;;;;;;5033651;28;20021;-57
2023/09/11 01:10:23;;;;;;;9.45;5.28;;;25.70;99.90;;;;;;5032896;28;20021;-57
2023/09/11 01:12:49;;;;;;;12.70;5.13;;;25.80;99.90;;;;;;5017767;28;20354;-56
2023/09/11 01:15:15;;;;;;;10.68;5.80;;;25.80;99.90;;;;;;5033523;28;20025;-56
2023/09/11 01:17:41;;;;;;;9.13;5.15;;;25.90;99.90;;;;;;5034090;28;20148;-55
2023/09/11 01:20:26;;;;;;;8.90;5.57;;;25.90;99.90;;;;;;5029708;28;20109;-55
2023/09/11 01:23:21;;;;;;;10.27;4.78;;;26.00;99.90;;;;;;5018243;28;20022;-57
2023/09/11 01:26:33;;;;;;;8.15;4.10;;;26.00;99.90;;;;;;5016067;28;20052;-56
2023/09/11 01:29:08;;;;;;;6.70;4.13;;;26.00;99.90;;;;;;5024539;28;20042;-58
2023/09/11 01:31:36;;;;;;;6.65;4.72;;;26.10;99.90;;;;;;5027379;28;20022;-56
2023/09/11 01:34:03;;;;;;;7.43;4.32;;;26.10;99.90;;;;;;5033734;28;20029;-53
2023/09/11 01:36:29;;;;;;;4.82;4.35;;;26.10;99.90;;;;;;5031720;28;20486;-56
2023/09/11 01:38:56;;;;;;;9.93;5.70;;;26.10;99.90;;;;;;5023776;28;20133;-56
2023/09/11 01:41:31;;;;;;;6.15;4.30;;;26.10;99.90;;;;;;5014525;28;20425;-55
2023/09/11 01:44:03;;;;;;;7.20;4.20;;;26.10;99.90;;;;;;5039204;28;20074;-55
2023/09/11 01:46:29;;;;;;;8.82;4.05;;;26.10;99.90;;;;;;5032502;28;20069;-57
2023/09/11 01:48:58;;;;;;;7.22;4.10;;;26.10;99.90;;;;;;5022284;28;20034;-56
2023/09/11 01:51:24;;;;;;;9.27;4.65;;;26.10;99.90;;;;;;5018435;28;20029;-57
2023/09/11 01:53:51;;;;;;;9.47;4.47;;;26.10;99.90;;;;;;5031960;28;20120;-56
2023/09/11 01:56:17;;;;;;;6.25;3.97;;;26.10;99.90;;;;;;5028629;28;20018;-57
2023/09/11 01:58:44;;;;;;;9.30;3.83;;;26.00;99.90;;;;;;5014889;28;20493;-56
2023/09/11 02:01:10;;;;;;;9.25;4.25;;;26.10;99.90;;;;;;5024316;28;20084;-58
2023/09/11 02:03:35;;;;;;;8.30;4.20;;;26.00;99.90;;;;;;5032076;28;20122;-56
2023/09/11 02:06:01;;;;;;;9.95;5.05;;;26.00;99.90;;;;;;5026368;28;20030;-55
2023/09/11 02:08:27;;;;;;;7.25;4.70;;;26.10;99.90;;;;;;5020478;28;20033;-55
2023/09/11 02:10:53;;;;;;;7.55;4.70;;;26.00;99.90;;;;;;5032630;28;20032;-56
2023/09/11 02:13:20;;;;;;;7.60;5.30;;;26.00;99.90;;;;;;5032442;28;20412;-56
2023/09/11 02:15:45;;;;;;;8.45;5.18;;;26.00;99.90;;;;;;5017278;28;20652;-56
2023/09/11 02:18:11;;;;;;;6.10;4.15;;;26.00;99.90;;;;;;5013184;28;20058;-58
2023/09/11 02:20:37;;;;;;;7.30;4.95;;;26.10;99.90;;;;;;5012116;28;20363;-57
2023/09/11 02:23:03;;;;;;;11.50;4.65;;;26.10;99.90;;;;;;4994508;28;20076;-56
2023/09/11 02:25:28;;;;;;;6.28;4.25;;;26.00;99.90;;;;;;5016425;28;20060;-56
2023/09/11 02:27:54;;;;;;;8.32;4.57;;;26.00;99.90;;;;;;5012822;28;20033;-55
2023/09/11 02:30:20;;;;;;;9.40;4.88;;;26.00;99.90;;;;;;5011629;28;20474;-57
2023/09/11 02:32:46;;;;;;;7.72;4.38;;;26.00;99.90;;;;;;5014735;28;20022;-57
2023/09/11 02:35:12;;;;;;;7.45;4.72;;;26.00;99.90;;;;;;5012511;28;20029;-57
2023/09/11 02:37:37;;;;;;;5.88;4.60;;;26.00;99.90;;;;;;5012855;28;20065;-56
2023/09/11 02:40:04;;;;;;;5.68;4.28;;;26.00;99.90;;;;;;5013216;28;20064;-56
2023/09/11 02:42:30;;;;;;;7.00;4.70;;;26.00;99.90;;;;;;5015593;28;20466;-56
2023/09/11 02:44:55;;;;;;;6.97;5.15;;;26.00;99.90;;;;;;5012666;28;20092;-57
2023/09/11 02:47:21;;;;;;;8.65;4.88;;;26.00;99.90;;;;;;5012186;28;20129;-57
2023/09/11 02:49:47;;;;;;;7.60;4.88;;;26.00;99.90;;;;;;5027209;28;20026;-56
2023/09/11 02:52:13;;;;;;;8.13;4.47;;;25.90;99.90;;;;;;5014548;28;20466;-56
2023/09/11 02:54:38;;;;;;;5.47;4.82;;;25.90;99.90;;;;;;5012586;28;20028;-57
2023/09/11 02:57:04;;;;;;;6.00;4.63;;;26.00;99.90;;;;;;5012324;28;20080;-55
2023/09/11 02:59:34;;;;;;;6.28;4.75;;;25.90;99.90;;;;;;5013101;28;20030;-56
2023/09/11 03:02:00;;;;;;;9.55;5.32;;;26.00;99.90;;;;;;5038767;22;20111;-62
2023/09/11 03:04:26;;;;;;;8.98;5.70;;;26.00;99.90;;;;;;5030916;28;20065;-63
2023/09/11 03:06:51;;;;;;;5.85;5.00;;;26.00;99.90;;;;;;5030653;28;20037;-62
2023/09/11 03:09:17;;;;;;;9.13;5.65;;;25.90;99.90;;;;;;5023188;28;20092;-63
2023/09/11 03:11:43;;;;;;;9.75;6.38;;;26.00;99.90;;;;;;5012262;28;20527;-63
2023/09/11 03:14:11;;;;;;;6.88;5.28;;;26.00;99.90;;;;;;5012083;28;20022;-62
2023/09/11 03:16:43;;;;;;;9.32;5.38;;;26.00;99.90;;;;;;5012807;28;20065;-63
2023/09/11 03:19:15;;;;;;;7.13;4.95;;;26.00;99.90;;;;;;5011803;28;20038;-62
2023/09/11 03:21:40;;;;;;;8.02;5.47;;;25.90;99.90;;;;;;5011965;28;20029;-62
2023/09/11 03:24:06;;;;;;;7.72;5.35;;;26.00;99.90;;;;;;5011235;28;20413;-63
2023/09/11 03:26:32;;;;;;;14.43;6.03;;;26.00;99.90;;;;;;5012006;28;20026;-62
2023/09/11 03:28:58;;;;;;;12.38;5.75;;;25.90;99.90;;;;;;5012951;28;20485;-63
2023/09/11 03:31:24;;;;;;;7.65;5.30;;;25.90;99.90;;;;;;5011283;28;20021;-63
2023/09/11 03:33:49;;;;;;;10.27;5.90;;;25.90;99.90;;;;;;5011644;28;20025;-64
2023/09/11 03:36:17;;;;;;;7.90;5.30;;;25.90;99.90;;;;;;5013197;28;20461;-63
2023/09/11 03:38:43;;;;;;;;;;;25.90;99.90;;;;;;5012153;28;20037;-64
2023/09/11 03:41:12;;;;;;;7.55;5.43;;;25.90;99.90;;;;;;5011620;28;20348;-63
2023/09/11 03:43:37;;;;;;;8.85;5.38;;;25.90;99.90;;;;;;5011424;28;20058;-63
2023/09/11 03:46:03;;;;;;;8.00;4.53;;;25.90;99.90;;;;;;5012903;28;20516;-63
2023/09/11 03:48:29;;;;;;;5.93;5.15;;;25.90;99.90;;;;;;5011466;28;20030;-64
2023/09/11 03:50:56;;;;;;;9.13;4.80;;;25.90;99.90;;;;;;5015168;28;20478;-64
2023/09/11 03:53:21;;;;;;;6.07;5.22;;;25.90;99.90;;;;;;5029857;28;20101;-64
2023/09/11 03:55:47;;;;;;;7.55;5.20;;;25.90;99.90;;;;;;5013105;28;20121;-63
2023/09/11 03:58:13;;;;;;;7.47;5.97;;;25.90;99.90;;;;;;5011385;28;20394;-64
2023/09/11 04:00:39;;;;;;;10.07;5.95;;;25.90;99.90;;;;;;5010607;28;20033;-65
2023/09/11 04:03:05;;;;;;;7.47;5.22;;;25.80;99.90;;;;;;5012802;28;20068;-63
2023/09/11 04:05:30;;;;;;;9.73;5.97;;;25.90;99.90;;;;;;5011663;28;20026;-64
2023/09/11 04:07:57;;;;;;;8.95;5.60;;;25.80;99.90;;;;;;5010154;28;20084;-64
2023/09/11 04:10:23;;;;;;;6.78;5.15;;;25.90;99.90;;;;;;5010530;28;20033;-65
2023/09/11 04:12:48;;;;;;;7.50;5.65;;;25.90;99.90;;;;;;5012141;28;20030;-65
2023/09/11 04:15:14;;;;;;;8.98;5.45;;;25.90;99.90;;;;;;5011262;28;20100;-64
2023/09/11 04:17:40;;;;;;;8.15;5.53;;;25.90;99.90;;;;;;5010684;28;20029;-64
2023/09/11 04:20:06;;;;;;;12.02;5.97;;;25.90;99.90;;;;;;5011444;28;20057;-63
2023/09/11 04:22:32;;;;;;;6.05;5.10;;;25.90;99.90;;;;;;5012721;28;20066;-64
2023/09/11 04:24:58;;;;;;;8.82;5.07;;;25.90;99.90;;;;;;5011169;28;20057;-64
2023/09/11 04:27:23;;;;;;;8.68;5.82;;;25.90;99.90;;;;;;5010869;28;20033;-64
2023/09/11 04:29:49;;;;;;;10.15;5.90;;;25.90;99.90;;;;;;5012504;28;20032;-64
2023/09/11 04:32:17;;;;;;;8.63;5.47;;;25.90;99.90;;;;;;5011879;28;20030;-64
2023/09/11 04:34:42;;;;;;;6.78;4.57;;;25.90;99.90;;;;;;5011050;28;20327;-64
2023/09/11 04:37:08;;;;;;;8.07;4.45;;;25.90;99.90;;;;;;5010014;28;20041;-63
2023/09/11 04:39:34;;;;;;;10.77;4.72;;;26.00;99.90;;;;;;5012677;28;20037;-64
2023/09/11 04:42:00;;;;;;;10.45;5.20;;;26.00;99.90;;;;;;5010901;28;20018;-64
2023/09/11 04:44:26;;;;;;;7.90;5.63;;;26.00;99.90;;;;;;5013887;28;20088;-64
2023/09/11 04:46:51;;;;;;;10.13;6.72;;;26.00;99.90;;;;;;5015423;28;20022;-64
2023/09/11 04:49:17;;;;;;;10.85;7.35;;;26.00;99.90;;;;;;5016522;28;20065;-63
2023/09/11 04:51:43;;;;;;;9.90;6.20;;;26.00;99.90;;;;;;5014646;28;20482;-64
2023/09/11 04:54:09;;;;;;;16.23;6.53;;;26.00;99.90;;;;;;5013878;28;20026;-63
2023/09/11 04:56:35;;;;;;;10.70;6.07;;;26.00;99.90;;;;;;5015057;28;20072;-63
2023/09/11 04:59:00;;;;;;;8.95;5.45;;;26.00;99.90;;;;;;5016544;28;20034;-63
2023/09/11 05:01:26;;;;;;;6.70;5.30;;;26.00;99.90;;;;;;5013881;28;20489;-63
2023/09/11 05:03:52;;;;;;;8.80;6.03;;;26.00;99.90;;;;;;5011766;28;20032;-63
2023/09/11 05:06:17;;;;;;;8.75;5.70;;;26.00;99.90;;;;;;5015499;28;20018;-64
2023/09/11 05:08:43;;;;;;;9.95;6.63;;;26.00;99.90;;;;;;5014675;28;20493;-65
2023/09/11 05:11:09;;;;;;;9.70;6.20;;;26.00;99.90;;;;;;5014459;28;20414;-66
2023/09/11 05:13:35;;;;;;;10.98;7.32;;;26.00;99.90;;;;;;5029637;28;20032;-64
2023/09/11 05:16:01;;;;;;;12.70;6.65;;;26.00;99.90;;;;;;5016273;28;20551;-64
2023/09/11 05:18:26;;;;;;;12.50;7.00;;;25.90;99.90;;;;;;5013884;28;20121;-64
2023/09/11 05:20:52;;;;;;;8.45;6.65;;;25.90;99.90;;;;;;5013221;28;20022;-63
2023/09/11 05:23:18;;;;;;;10.93;7.13;;;25.90;99.90;;;;;;5012704;28;20072;-64
2023/09/11 05:25:45;;;;;;;10.65;6.85;;;25.90;99.90;;;;;;5015329;28;20022;-65
2023/09/11 05:28:10;;;;;;;17.17;7.10;;;25.90;99.90;;;;;;5014205;28;20183;-65
2023/09/11 05:30:37;;;;;;;10.77;6.05;;;25.90;99.90;;;;;;5012232;28;20026;-64
2023/09/11 05:33:03;;;;;;;8.73;6.23;;;25.90;99.90;;;;;;5014590;28;20814;-66
2023/09/11 05:35:30;;;;;;;11.50;6.20;;;25.90;99.90;;;;;;5015227;28;20026;-66
2023/09/11 05:37:55;;;;;;;9.75;6.30;;;25.90;99.90;;;;;;5013773;28;20092;-66
2023/09/11 05:40:21;;;;;;;7.78;6.05;;;25.90;99.90;;;;;;5012550;28;20022;-64
2023/09/11 05:42:47;;;;;;;11.75;6.93;;;25.90;99.90;;;;;;5022701;28;20032;-64
2023/09/11 05:45:13;;;;;;;8.20;6.25;;;25.80;99.90;;;;;;5034473;28;20032;-63
2023/09/11 05:47:39;;;;;;;8.15;6.50;;;25.80;99.90;;;;;;5034535;28;20029;-63
2023/09/11 05:50:07;;;;;;;13.15;6.68;;;25.80;99.90;;;;;;5034136;28;20508;-63
2023/09/11 05:52:33;;;;;;;7.95;6.05;;;25.80;99.90;;;;;;5017576;28;20470;-63
2023/09/11 05:54:58;;;;;;;13.05;6.35;;;25.80;99.90;;;;;;5012486;28;20625;-63
2023/09/11 05:57:24;;;;;;;13.52;5.53;;;25.80;99.90;;;;;;5012400;28;20137;-63
2023/09/11 05:59:50;;;;;;;10.75;6.65;;;25.80;99.90;;;;;;5014009;28;20411;-64
2023/09/11 06:02:16;;;;;;;14.70;6.90;;;25.80;99.90;;;;;;5014252;28;20434;-64
2023/09/11 06:04:42;;;;;;;12.23;8.77;;;25.80;99.90;;;;;;5013580;28;20037;-65
2023/09/11 06:07:07;;;;;;;21.90;13.98;;;25.80;99.90;;;;;;5011926;28;20581;-64
2023/09/11 06:09:33;;;;;;;15.45;8.80;;;25.80;99.90;;;;;;5013344;28;20028;-63
2023/09/11 06:11:59;;;;;;;12.95;7.85;;;25.80;99.90;;;;;;5011819;28;20040;-63
2023/09/11 06:14:24;;;;;;;7.88;6.63;;;25.80;99.90;;;;;;5013057;28;20026;-63
2023/09/11 06:16:50;;;;;;;9.90;7.13;;;25.80;99.90;;;;;;5012295;28;20500;-63
2023/09/11 06:19:16;;;;;;;14.68;7.88;;;25.80;99.90;;;;;;5014472;28;20038;-63
2023/09/11 06:21:45;;;;;;;14.73;10.30;;;25.80;99.90;;;;;;5012944;28;20108;-64
2023/09/11 06:24:12;;;;;;;17.08;10.55;;;25.80;99.90;;;;;;5013683;28;20486;-63
2023/09/11 06:26:41;;;;;;;12.33;7.37;;;25.80;99.90;;;;;;5013300;28;20493;-63
2023/09/11 06:29:06;;;;;;;11.38;6.88;;;25.80;99.90;;;;;;5015795;28;20033;-64
2023/09/11 06:31:32;;;;;;;10.38;6.95;;;25.80;99.90;;;;;;5012767;28;20026;-62
2023/09/11 06:33:59;;;;;;;12.10;7.75;;;25.80;99.90;;;;;;5011740;28;20030;-63
2023/09/11 06:36:24;;;;;;;13.40;6.55;;;25.80;99.90;;;;;;5013229;28;20055;-63
2023/09/11 06:38:50;;;;;;;13.90;6.85;;;25.80;99.90;;;;;;5013424;28;20565;-64
2023/09/11 06:41:16;;;;;;;12.10;6.90;;;25.80;99.90;;;;;;5013322;28;20068;-63
2023/09/11 06:43:42;;;;;;;8.90;7.30;;;25.80;99.90;;;;;;5013705;28;20022;-63
2023/09/11 06:46:08;;;;;;;8.48;6.97;;;25.80;99.90;;;;;;5013932;28;20030;-62
2023/09/11 06:48:34;;;;;;;10.45;6.90;;;25.80;99.90;;;;;;5012466;28;20033;-63
2023/09/11 06:51:00;;;;;;;10.65;7.28;;;25.80;99.90;;;;;;5012704;28;20072;-63
2023/09/11 06:53:27;;;;;;;11.77;5.90;;;25.80;99.90;;;;;;5012142;28;20097;-63
2023/09/11 06:55:53;;;;;;;13.87;6.07;;;25.80;99.90;;;;;;5014001;28;20474;-63
2023/09/11 06:58:19;;;;;;;7.53;5.32;;;25.90;99.90;;;;;;5012259;28;20025;-63
2023/09/11 07:00:45;;;;;;;11.88;6.95;;;25.90;99.90;;;;;;5027083;28;20034;-62
2023/09/11 07:03:11;;;;;;;13.70;6.75;;;25.90;99.90;;;;;;5013374;28;20029;-64
2023/09/11 07:05:38;;;;;;;12.23;6.85;;;25.90;99.90;;;;;;5012864;28;20037;-63
2023/09/11 07:08:04;;;;;;;9.93;7.10;;;25.90;99.90;;;;;;5012563;28;20077;-63
2023/09/11 07:10:30;;;;;;;10.85;6.30;;;25.90;99.90;;;;;;5026511;28;20123;-62
2023/09/11 07:12:56;;;;;;;7.45;6.65;;;25.90;99.90;;;;;;5013632;28;20034;-63
2023/09/11 07:15:21;;;;;;;14.57;7.03;;;26.00;99.90;;;;;;5027253;28;20382;-63
2023/09/11 07:17:48;;;;;;;9.80;6.85;;;26.00;99.90;;;;;;5028037;28;20410;-62
2023/09/11 07:20:15;;;;;;;12.10;9.63;;;26.00;99.90;;;;;;5013056;28;20026;-63
2023/09/11 07:22:41;;;;;;;14.88;6.38;;;26.00;99.90;;;;;;5012060;28;20025;-63
2023/09/11 07:25:14;;;;;;;14.65;7.47;;;26.00;99.90;;;;;;5011825;28;20106;-63
2023/09/11 07:27:40;;;;;;;12.18;7.30;;;26.10;99.90;;;;;;5011805;28;20053;-63
2023/09/11 07:30:09;;;;;;;9.95;5.60;;;26.10;99.90;;;;;;5012982;28;20051;-65
2023/09/11 07:32:34;;;;;;;16.55;9.80;;;26.10;99.90;;;;;;5013094;28;20504;-65
2023/09/11 07:35:00;;;;;;;14.95;5.25;;;26.20;99.90;;;;;;5011900;28;20018;-65
2023/09/11 07:37:26;;;;;;;9.52;5.40;;;26.20;99.90;;;;;;5012427;28;20025;-66
2023/09/11 07:39:52;;;;;;;9.10;5.90;;;26.20;99.90;;;;;;5013486;28;20022;-65
2023/09/11 07:42:17;;;;;;;10.73;6.13;;;26.30;99.90;;;;;;5011690;28;20025;-66
2023/09/11 07:44:43;;;;;;;8.15;6.10;;;26.30;99.90;;;;;;5012197;28;20084;-65
2023/09/11 07:47:09;;;;;;;8.55;5.05;;;26.30;99.90;;;;;;5009702;28;20026;-65
2023/09/11 07:49:35;;;;;;;6.75;5.40;;;26.40;99.90;;;;;;5012918;28;20026;-64
2023/09/11 07:52:01;;;;;;;13.80;6.13;;;26.40;99.90;;;;;;5011522;28;20026;-65
2023/09/11 07:54:27;;;;;;;18.10;7.18;;;26.40;99.90;;;;;;5012249;28;20022;-64
2023/09/11 07:56:53;;;;;;;10.75;5.65;;;26.40;99.90;;;;;;5010703;28;20030;-63
2023/09/11 07:59:19;;;;;;;14.55;7.00;;;26.40;99.90;;;;;;5013345;28;20496;-64
2023/09/11 08:01:44;;;;;;;12.00;5.80;;;26.50;99.90;;;;;;5011103;28;20451;-64
2023/09/11 08:04:10;;;;;;;21.48;8.40;;;26.50;99.90;;;;;;5010150;28;20026;-62
2023/09/11 08:06:36;;;;;;;11.23;6.68;;;26.50;99.90;;;;;;5012177;28;20492;-64
2023/09/11 08:09:03;;;;;;;11.50;6.60;;;26.50;99.90;;;;;;5010680;28;20378;-64
2023/09/11 08:11:31;;;;;;;11.07;6.05;;;26.50;99.90;;;;;;5010733;28;20436;-65
2023/09/11 08:13:57;;;;;;;9.30;5.95;;;26.60;99.90;;;;;;5012220;28;20030;-65
2023/09/11 08:16:23;;;;;;;10.48;6.50;;;26.60;99.90;;;;;;5014546;28;20101;-66
2023/09/11 08:18:49;;;;;;;9.68;5.68;;;26.60;99.90;;;;;;5013560;28;20076;-65
2023/09/11 08:21:16;;;;;;;11.40;7.07;;;26.70;99.90;;;;;;5015687;28;20045;-65
2023/09/11 08:23:43;;;;;;;9.50;6.35;;;26.70;99.90;;;;;;5015220;28;20092;-66
2023/09/11 08:26:10;;;;;;;12.45;6.22;;;26.70;99.90;;;;;;5031599;28;20045;-64
2023/09/11 08:28:37;;;;;;;11.30;5.40;;;26.70;99.90;;;;;;5014033;28;20032;-64
2023/09/11 08:31:03;;;;;;;10.93;5.75;;;26.80;99.90;;;;;;5013863;28;20029;-65
2023/09/11 08:33:29;;;;;;;11.20;6.25;;;26.80;99.90;;;;;;5012741;28;20034;-66
2023/09/11 08:35:55;;;;;;;7.40;5.17;;;26.80;99.90;;;;;;5015436;28;20026;-65
2023/09/11 08:38:24;;;;;;;13.60;5.80;;;26.80;99.90;;;;;;5030768;28;20117;-66
2023/09/11 08:40:50;;;;;;;7.88;5.38;;;26.80;99.90;;;;;;5014729;28;20079;-64
2023/09/11 08:43:16;;;;;;;9.93;5.13;;;26.90;99.90;;;;;;5016229;28;20475;-67
2023/09/11 08:45:43;;;;;;;7.90;5.18;;;26.90;99.90;;;;;;5015058;28;20025;-66
2023/09/11 08:48:11;;;;;;;8.18;5.70;;;26.90;99.90;;;;;;5014836;28;20050;-65
2023/09/11 08:50:48;;;;;;;9.07;5.80;;;27.00;99.90;;;;;;5014654;28;20490;-66
2023/09/11 08:53:17;;;;;;;11.63;5.85;;;27.00;99.90;;;;;;5017785;28;20030;-66
2023/09/11 08:55:44;;;;;;;10.20;6.57;;;27.00;99.90;;;;;;5014721;28;20030;-66
2023/09/11 08:58:15;;;;;;;8.60;5.45;;;27.10;99.90;;;;;;5013659;28;20092;-65
2023/09/11 09:00:42;;;;;;;9.52;5.10;;;27.00;99.90;;;;;;5017190;28;20026;-66
2023/09/11 09:03:09;;;;;;;7.57;4.73;;;27.10;99.90;;;;;;5035232;28;20520;-64
2023/09/11 09:05:36;;;;;;;7.68;5.60;;;27.10;99.90;;;;;;5035135;28;20347;-66
2023/09/11 09:08:04;;;;;;;9.13;5.22;;;27.10;99.90;;;;;;5035134;28;20029;-66
2023/09/11 09:10:30;;;;;;;13.00;5.70;;;27.10;99.90;;;;;;5021730;28;20049;-66
2023/09/11 09:12:56;;;;;;;10.80;5.97;;;27.10;99.90;;;;;;5014411;28;20092;-65
2023/09/11 09:15:23;;;;;;;6.97;4.68;;;27.20;99.90;;;;;;5014593;28;20113;-65
2023/09/11 09:17:50;;;;;;;10.35;4.60;;;27.10;99.90;;;;;;5014192;28;20398;-64
2023/09/11 09:20:17;;;;;;;10.53;6.23;;;27.20;99.90;;;;;;5016777;28;20093;-66
2023/09/11 09:22:57;;;;;;;12.93;6.32;;;27.20;99.90;;;;;;5014349;28;20018;-66
2023/09/11 09:25:28;;;;;;;8.52;4.80;;;27.20;99.90;;;;;;5013947;28;20103;-65
2023/09/11 09:27:56;;;;;;;11.38;5.32;;;27.20;99.90;;;;;;5014550;28;20028;-65
2023/09/11 09:30:30;;;;;;;7.90;4.75;;;27.20;99.90;;;;;;5012775;28;20018;-65
2023/09/11 09:32:56;;;;;;;5.70;5.13;;;27.20;99.90;;;;;;5014435;28;20486;-62
2023/09/11 09:35:26;;;;;;;6.25;4.35;;;27.30;99.90;;;;;;5013898;28;20022;-64
2023/09/11 09:37:53;;;;;;;10.00;5.53;;;27.30;99.90;;;;;;5016410;28;20045;-65
2023/09/11 09:40:35;;;;;;;11.95;5.10;;;27.40;99.90;;;;;;5014518;28;20041;-63
2023/09/11 09:43:03;;;;;;;9.70;4.78;;;27.40;99.90;;;;;;5032924;28;20030;-65
2023/09/11 09:45:34;;;;;;;9.82;4.85;;;27.40;99.90;;;;;;5030300;28;20486;-63
2023/09/11 09:48:14;;;;;;;11.77;4.55;;;27.40;99.90;;;;;;5017384;28;20041;-66
2023/09/11 09:50:56;;;;;;;10.95;5.53;;;27.40;99.90;;;;;;5029581;28;20489;-66
2023/09/11 09:53:25;;;;;;;8.63;6.15;;;27.40;99.90;;;;;;5029761;28;20474;-63
2023/09/11 09:55:51;;;;;;;7.95;5.53;;;27.40;99.90;;;;;;5026836;28;20451;-59
2023/09/11 09:58:27;;;;;;;10.63;5.83;;;27.40;99.90;;;;;;5013396;28;20037;-62
2023/09/11 10:01:03;;;;;;;7.25;4.35;;;27.50;99.90;;;;;;5014220;28;20579;-59
2023/09/11 10:03:41;;;;;;;9.13;5.40;;;27.50;99.90;;;;;;5029792;28;20470;-60
2023/09/11 10:06:31;;;;;;;7.22;5.00;;;27.60;99.90;;;;;;5023010;28;20078;-62
2023/09/11 10:09:11;;;;;;;10.48;6.03;;;27.60;99.90;;;;;;5030084;28;20017;-61
2023/09/11 10:11:38;;;;;;;12.35;4.93;;;27.60;99.90;;;;;;5031055;28;20017;-62
2023/09/11 10:14:06;;;;;;;8.73;5.78;;;27.60;99.90;;;;;;5027640;28;20029;-62
2023/09/11 10:16:33;;;;;;;12.43;5.57;;;27.60;99.90;;;;;;5027053;28;20059;-61
2023/09/11 10:19:01;;;;;;;15.68;7.25;;;27.60;99.90;;;;;;5029670;28;20041;-61
2023/09/11 10:21:28;;;;;;;7.47;4.07;;;27.60;99.90;;;;;;5031057;28;20044;-61
2023/09/11 10:23:54;;;;;;;9.50;4.53;;;27.70;99.90;;;;;;5032530;28;20100;-61
2023/09/11 10:26:42;;;;;;;7.65;4.53;;;27.60;99.90;;;;;;5030315;28;20104;-61
2023/09/11 10:29:27;;;;;;;8.85;4.38;;;27.70;99.90;;;;;;5030483;28;20022;-59
2023/09/11 10:32:01;;;;;;;7.63;4.82;;;27.70;99.90;;;;;;5029457;28;20493;-58
2023/09/11 10:34:27;;;;;;;5.60;4.60;;;27.70;99.90;;;;;;5047208;28;20031;-60
2023/09/11 10:36:58;;;;;;;7.18;5.20;;;27.70;99.90;;;;;;5049235;28;20107;-58
2023/09/11 10:39:24;;;;;;;8.27;5.03;;;27.70;99.90;;;;;;5044224;28;20245;-58
2023/09/11 10:41:50;;;;;;;6.38;4.30;;;27.70;99.90;;;;;;5026940;28;20100;-60
2023/09/11 10:44:16;;;;;;;5.93;4.82;;;27.80;99.90;;;;;;5030555;28;20033;-59
2023/09/11 10:46:48;;;;;;;8.25;5.80;;;27.80;99.90;;;;;;5031055;28;20097;-61
2023/09/11 10:49:27;;;;;;;8.95;5.53;;;27.90;99.90;;;;;;5028798;28;20351;-59
2023/09/11 10:51:53;;;;;;;7.35;4.75;;;27.90;99.90;;;;;;5030562;28;20477;-60
2023/09/11 10:54:23;;;;;;;11.05;4.60;;;27.90;99.90;;;;;;5031677;28;20536;-59
2023/09/11 10:56:50;;;;;;;6.25;4.13;;;27.90;99.90;;;;;;5027410;28;20029;-61
2023/09/11 10:59:19;;;;;;;7.38;5.05;;;28.00;99.90;;;;;;5029703;28;20044;-59
2023/09/11 11:01:46;;;;;;;11.05;5.47;;;28.00;99.90;;;;;;5031306;28;20053;-59
2023/09/11 11:04:15;;;;;;;5.93;4.47;;;28.00;99.90;;;;;;5027073;28;20041;-60
2023/09/11 11:06:45;;;;;;;5.57;4.32;;;28.00;99.90;;;;;;5027094;28;20025;-60
2023/09/11 11:09:35;;;;;;;9.05;5.03;;;28.10;99.90;;;;;;5029418;28;20366;-60
2023/09/11 11:12:13;;;;;;;10.82;7.22;;;28.10;99.90;;;;;;5031740;28;20020;-59
2023/09/11 11:14:38;;;;;;;;;;;28.10;99.90;;;;;;5032003;28;20155;-58
2023/09/11 11:17:10;;;;;;;19.40;10.57;;;28.10;99.90;;;;;;5035859;28;20315;-56
2023/09/11 11:19:46;;;;;;;8.48;5.32;;;28.10;99.90;;;;;;5036177;28;20046;-56
2023/09/11 11:22:33;;;;;;;6.68;5.13;;;28.10;99.90;;;;;;5048074;28;20146;-56
2023/09/11 11:25:03;;;;;;;8.82;6.13;;;28.10;99.90;;;;;;5034034;28;20032;-58
2023/09/11 11:27:29;;;;;;;14.45;5.80;;;28.10;99.90;;;;;;5028766;28;20813;-56
2023/09/11 11:29:56;;;;;;;7.53;5.28;;;28.10;99.90;;;;;;5030332;28;20033;-56
2023/09/11 11:32:22;;;;;;;8.63;5.30;;;28.10;99.90;;;;;;5031909;28;20048;-55
2023/09/11 11:34:50;;;;;;;8.50;5.15;;;28.20;99.90;;;;;;5033842;28;20026;-55
2023/09/11 11:37:20;;;;;;;10.95;5.80;;;28.20;99.90;;;;;;5029938;28;20125;-55
2023/09/11 11:39:46;;;;;;;8.55;4.90;;;28.20;99.90;;;;;;5030298;28;20044;-56
2023/09/11 11:42:13;;;;;;;10.07;4.80;;;28.10;99.90;;;;;;5029130;28;20021;-59
2023/09/11 11:44:40;;;;;;;7.25;4.47;;;28.10;99.90;;;;;;5027334;28;20486;-56
2023/09/11 11:47:07;;;;;;;11.23;7.35;;;28.10;99.90;;;;;;5030146;28;20482;-56
2023/09/11 11:49:36;;;;;;;11.18;5.60;;;28.10;99.90;;;;;;5030371;28;20028;-56
2023/09/11 11:52:03;;;;;;;10.85;6.25;;;28.10;99.90;;;;;;5024789;28;20595;-56
2023/09/11 11:54:29;;;;;;;13.00;5.97;;;28.10;99.90;;;;;;5028667;28;20468;-57
2023/09/11 11:57:04;;;;;;;14.00;10.48;;;28.10;99.90;;;;;;5028842;28;20041;-57
2023/09/11 11:59:33;;;;;;;8.63;5.97;;;28.10;99.90;;;;;;5030177;28;20031;-57
2023/09/11 12:02:00;;;;;;;11.82;8.02;;;28.10;99.90;;;;;;5028533;28;20053;-56
2023/09/11 12:04:26;;;;;;;16.95;13.38;;;28.10;99.90;;;;;;5030922;28;20124;-56
2023/09/11 12:06:54;;;;;;;14.77;9.50;;;28.10;99.90;;;;;;5031705;28;20095;-56
2023/09/11 12:09:21;;;;;;;9.13;6.13;;;28.10;99.90;;;;;;5029669;28;20029;-58
2023/09/11 12:11:49;;;;;;;12.15;6.72;;;28.10;99.90;;;;;;5026325;28;20536;-56
2023/09/11 12:14:16;;;;;;;16.02;8.07;;;28.10;99.90;;;;;;5030352;28;20038;-57
2023/09/11 12:16:42;;;;;;;15.75;8.50;;;28.20;99.90;;;;;;5028717;28;20021;-55
2023/09/11 12:19:09;;;;;;;14.02;6.10;;;28.10;99.90;;;;;;5025392;28;20041;-57
2023/09/11 12:21:34;;;;;;;13.65;8.63;;;28.20;99.90;;;;;;5015526;28;20021;-56
2023/09/11 12:24:01;;;;;;;13.95;8.05;;;28.20;99.90;;;;;;4985167;28;20687;-57
2023/09/11 12:26:27;;;;;;;10.52;7.38;;;28.20;99.90;;;;;;4988113;28;20423;-57
2023/09/11 12:28:55;;;;;;;6.82;5.10;;;28.20;99.90;;;;;;4989046;28;20034;-56
2023/09/11 12:31:21;;;;;;;9.70;6.93;;;28.20;99.90;;;;;;4989531;28;20117;-57
2023/09/11 12:33:55;;;;;;;9.57;5.10;;;28.20;99.90;;;;;;4987939;28;20015;-55
2023/09/11 12:36:21;;;;;;;11.80;7.28;;;28.20;99.90;;;;;;4989811;28;20340;-51
2023/09/11 12:38:49;;;;;;;11.02;5.90;;;28.20;99.90;;;;;;4987235;28;20391;-55
2023/09/11 12:41:16;;;;;;;8.75;6.07;;;28.10;99.90;;;;;;4989256;28;20022;-56
2023/09/11 12:43:43;;;;;;;7.47;3.67;;;28.10;99.90;;;;;;4986376;28;20540;-55
2023/09/11 12:46:10;;;;;;;11.02;5.78;;;28.10;99.90;;;;;;4984178;28;20500;-54